sensor_id;sensor_type;location;lat;lon;timestamp;temperature;humidity
10089;DHT22;51898;49.864;8.550;2024-01-11T00:00:33;-4.90;84.00
10089;DHT22;51898;49.864;8.550;2024-01-11T00:03:34;-4.90;83.80
10089;DHT22;51898;49.864;8.550;2024-01-11T00:06:41;-4.90;83.70
10089;DHT22;51898;49.864;8.550;2024-01-11T00:09:43;-4.80;83.50
10089;DHT22;51898;49.864;8.550;2024-01-11T00:12:45;-4.90;83.60
10089;DHT22;51898;49.864;8.550;2024-01-11T00:15:47;-4.80;83.60
10089;DHT22;51898;49.864;8.550;2024-01-11T00:18:49;-4.80;83.50
10089;DHT22;51898;49.864;8.550;2024-01-11T00:21:51;-4.80;83.60
10089;DHT22;51898;49.864;8.550;2024-01-11T00:24:52;-4.90;83.70
10089;DHT22;51898;49.864;8.550;2024-01-11T00:27:54;-4.80;83.80
10089;DHT22;51898;49.864;8.550;2024-01-11T00:30:55;-4.80;83.60
10089;DHT22;51898;49.864;8.550;2024-01-11T00:33:57;-4.80;83.60
10089;DHT22;51898;49.864;8.550;2024-01-11T00:36:59;-4.70;83.30
10089;DHT22;51898;49.864;8.550;2024-01-11T00:40:01;-4.80;83.30
10089;DHT22;51898;49.864;8.550;2024-01-11T00:43:03;-4.80;83.60
10089;DHT22;51898;49.864;8.550;2024-01-11T00:46:04;-4.80;83.70
10089;DHT22;51898;49.864;8.550;2024-01-11T00:49:06;-4.80;83.70
10089;DHT22;51898;49.864;8.550;2024-01-11T00:52:08;-4.90;83.80
10089;DHT22;51898;49.864;8.550;2024-01-11T00:55:10;-4.90;83.90
10089;DHT22;51898;49.864;8.550;2024-01-11T00:58:12;-4.80;83.80
10089;DHT22;51898;49.864;8.550;2024-01-11T01:01:14;-4.90;83.80
10089;DHT22;51898;49.864;8.550;2024-01-11T01:04:16;-4.90;84.00
10089;DHT22;51898;49.864;8.550;2024-01-11T01:07:18;-5.00;84.20
10089;DHT22;51898;49.864;8.550;2024-01-11T01:10:19;-4.90;84.10
10089;DHT22;51898;49.864;8.550;2024-01-11T01:13:21;-4.90;84.10
10089;DHT22;51898;49.864;8.550;2024-01-11T01:16:23;-4.90;84.00
10089;DHT22;51898;49.864;8.550;2024-01-11T01:19:24;-4.80;84.00
10089;DHT22;51898;49.864;8.550;2024-01-11T01:22:26;-4.90;83.90
10089;DHT22;51898;49.864;8.550;2024-01-11T01:25:28;-4.90;84.10
10089;DHT22;51898;49.864;8.550;2024-01-11T01:28:30;-4.90;84.00
10089;DHT22;51898;49.864;8.550;2024-01-11T01:31:31;-4.90;83.90
10089;DHT22;51898;49.864;8.550;2024-01-11T01:34:38;-4.90;84.10
10089;DHT22;51898;49.864;8.550;2024-01-11T01:37:40;-5.00;84.20
10089;DHT22;51898;49.864;8.550;2024-01-11T01:40:42;-5.00;84.50
10089;DHT22;51898;49.864;8.550;2024-01-11T01:43:43;-5.00;84.40
10089;DHT22;51898;49.864;8.550;2024-01-11T01:46:45;-5.10;84.60
10089;DHT22;51898;49.864;8.550;2024-01-11T01:49:48;-5.10;84.90
10089;DHT22;51898;49.864;8.550;2024-01-11T01:52:51;-5.10;85.20
10089;DHT22;51898;49.864;8.550;2024-01-11T01:55:53;-5.10;85.10
10089;DHT22;51898;49.864;8.550;2024-01-11T01:58:55;-5.20;85.40
10089;DHT22;51898;49.864;8.550;2024-01-11T02:01:57;-5.20;85.50
10089;DHT22;51898;49.864;8.550;2024-01-11T02:04:59;-5.20;85.70
10089;DHT22;51898;49.864;8.550;2024-01-11T02:08:04;-5.10;85.70
10089;DHT22;51898;49.864;8.550;2024-01-11T02:11:10;-5.10;85.60
10089;DHT22;51898;49.864;8.550;2024-01-11T02:14:12;-5.10;85.40
10089;DHT22;51898;49.864;8.550;2024-01-11T02:17:14;-5.10;85.50
10089;DHT22;51898;49.864;8.550;2024-01-11T02:20:16;-5.10;85.40
10089;DHT22;51898;49.864;8.550;2024-01-11T02:23:21;-5.20;85.50
10089;DHT22;51898;49.864;8.550;2024-01-11T02:26:23;-5.20;85.50
10089;DHT22;51898;49.864;8.550;2024-01-11T02:29:25;-5.20;85.50
10089;DHT22;51898;49.864;8.550;2024-01-11T02:32:27;-5.20;85.60
10089;DHT22;51898;49.864;8.550;2024-01-11T02:35:29;-5.20;85.80
10089;DHT22;51898;49.864;8.550;2024-01-11T02:38:33;-5.20;85.90
10089;DHT22;51898;49.864;8.550;2024-01-11T02:41:37;-5.20;85.80
10089;DHT22;51898;49.864;8.550;2024-01-11T02:44:39;-5.30;85.80
10089;DHT22;51898;49.864;8.550;2024-01-11T02:47:41;-5.30;85.90
10089;DHT22;51898;49.864;8.550;2024-01-11T02:50:43;-5.40;85.90
10089;DHT22;51898;49.864;8.550;2024-01-11T02:53:45;-5.40;86.10
10089;DHT22;51898;49.864;8.550;2024-01-11T02:56:46;-5.40;86.10
10089;DHT22;51898;49.864;8.550;2024-01-11T02:59:49;-5.40;86.10
10089;DHT22;51898;49.864;8.550;2024-01-11T03:02:51;-5.40;85.90
10089;DHT22;51898;49.864;8.550;2024-01-11T03:05:52;-5.40;86.00
10089;DHT22;51898;49.864;8.550;2024-01-11T03:08:55;-5.50;86.10
10089;DHT22;51898;49.864;8.550;2024-01-11T03:11:57;-5.50;86.20
10089;DHT22;51898;49.864;8.550;2024-01-11T03:14:58;-5.50;86.40
10089;DHT22;51898;49.864;8.550;2024-01-11T03:18:00;-5.50;86.30
10089;DHT22;51898;49.864;8.550;2024-01-11T03:21:02;-5.60;86.60
10089;DHT22;51898;49.864;8.550;2024-01-11T03:24:04;-5.60;86.70
10089;DHT22;51898;49.864;8.550;2024-01-11T03:27:06;-5.60;86.80
10089;DHT22;51898;49.864;8.550;2024-01-11T03:34:24;-5.60;86.80
10089;DHT22;51898;49.864;8.550;2024-01-11T03:37:25;-5.60;86.80
10089;DHT22;51898;49.864;8.550;2024-01-11T03:40:27;-5.60;86.90
10089;DHT22;51898;49.864;8.550;2024-01-11T03:43:29;-5.60;86.70
10089;DHT22;51898;49.864;8.550;2024-01-11T03:46:31;-5.60;86.60
10089;DHT22;51898;49.864;8.550;2024-01-11T03:49:33;-5.60;86.70
10089;DHT22;51898;49.864;8.550;2024-01-11T03:52:34;-5.60;86.70
10089;DHT22;51898;49.864;8.550;2024-01-11T03:55:36;-5.60;86.60
10089;DHT22;51898;49.864;8.550;2024-01-11T03:58:38;-5.60;86.70
10089;DHT22;51898;49.864;8.550;2024-01-11T04:01:46;-5.60;86.50
10089;DHT22;51898;49.864;8.550;2024-01-11T04:04:47;-5.70;86.20
10089;DHT22;51898;49.864;8.550;2024-01-11T04:07:49;-5.70;86.00
10089;DHT22;51898;49.864;8.550;2024-01-11T04:10:51;-5.80;86.00
10089;DHT22;51898;49.864;8.550;2024-01-11T04:13:53;-5.90;86.10
10089;DHT22;51898;49.864;8.550;2024-01-11T04:16:54;-5.90;86.60
10089;DHT22;51898;49.864;8.550;2024-01-11T04:19:56;-5.90;87.00
10089;DHT22;51898;49.864;8.550;2024-01-11T04:22:58;-5.80;86.90
10089;DHT22;51898;49.864;8.550;2024-01-11T04:26:00;-5.90;87.00
10089;DHT22;51898;49.864;8.550;2024-01-11T04:29:01;-5.80;87.00
10089;DHT22;51898;49.864;8.550;2024-01-11T04:32:03;-5.80;87.20
10089;DHT22;51898;49.864;8.550;2024-01-11T04:35:05;-5.90;87.50
10089;DHT22;51898;49.864;8.550;2024-01-11T04:38:07;-5.90;87.60
10089;DHT22;51898;49.864;8.550;2024-01-11T04:41:09;-5.90;87.90
10089;DHT22;51898;49.864;8.550;2024-01-11T04:44:11;-5.90;87.90
10089;DHT22;51898;49.864;8.550;2024-01-11T04:47:13;-5.90;88.00
10089;DHT22;51898;49.864;8.550;2024-01-11T04:50:15;-5.90;88.10
10089;DHT22;51898;49.864;8.550;2024-01-11T04:53:19;-5.90;87.90
10089;DHT22;51898;49.864;8.550;2024-01-11T04:56:20;-5.90;88.00
10089;DHT22;51898;49.864;8.550;2024-01-11T04:59:22;-5.90;87.80
10089;DHT22;51898;49.864;8.550;2024-01-11T05:02:24;-6.00;87.90
10089;DHT22;51898;49.864;8.550;2024-01-11T05:05:26;-5.90;87.90
10089;DHT22;51898;49.864;8.550;2024-01-11T05:08:28;-5.90;87.90
10089;DHT22;51898;49.864;8.550;2024-01-11T05:11:30;-6.00;87.90
10089;DHT22;51898;49.864;8.550;2024-01-11T05:14:32;-6.00;88.00
10089;DHT22;51898;49.864;8.550;2024-01-11T05:17:34;-6.00;87.80
10089;DHT22;51898;49.864;8.550;2024-01-11T05:20:36;-5.90;87.70
10089;DHT22;51898;49.864;8.550;2024-01-11T05:23:39;-6.00;87.70
10089;DHT22;51898;49.864;8.550;2024-01-11T05:26:41;-5.90;87.60
10089;DHT22;51898;49.864;8.550;2024-01-11T05:29:43;-6.00;87.70
10089;DHT22;51898;49.864;8.550;2024-01-11T05:32:45;-6.00;87.60
10089;DHT22;51898;49.864;8.550;2024-01-11T05:35:47;-6.00;87.70
10089;DHT22;51898;49.864;8.550;2024-01-11T05:38:49;-6.10;87.90
10089;DHT22;51898;49.864;8.550;2024-01-11T05:41:51;-6.10;88.00
10089;DHT22;51898;49.864;8.550;2024-01-11T05:44:52;-6.10;88.00
10089;DHT22;51898;49.864;8.550;2024-01-11T05:47:54;-6.10;88.30
10089;DHT22;51898;49.864;8.550;2024-01-11T05:50:56;-6.20;88.40
10089;DHT22;51898;49.864;8.550;2024-01-11T05:53:58;-6.20;88.50
10089;DHT22;51898;49.864;8.550;2024-01-11T05:56:59;-6.20;88.40
10089;DHT22;51898;49.864;8.550;2024-01-11T06:00:01;-6.20;88.60
10089;DHT22;51898;49.864;8.550;2024-01-11T06:03:03;-6.20;88.50
10089;DHT22;51898;49.864;8.550;2024-01-11T06:06:06;-6.20;88.40
10089;DHT22;51898;49.864;8.550;2024-01-11T06:09:08;-6.30;88.50
10089;DHT22;51898;49.864;8.550;2024-01-11T06:12:11;-6.30;88.70
10089;DHT22;51898;49.864;8.550;2024-01-11T06:15:14;-6.30;88.90
10089;DHT22;51898;49.864;8.550;2024-01-11T06:18:16;-6.30;88.70
10089;DHT22;51898;49.864;8.550;2024-01-11T06:21:18;-6.30;88.70
10089;DHT22;51898;49.864;8.550;2024-01-11T06:24:20;-6.30;88.30
10089;DHT22;51898;49.864;8.550;2024-01-11T06:27:21;-6.30;88.40
10089;DHT22;51898;49.864;8.550;2024-01-11T06:30:23;-6.40;88.50
10089;DHT22;51898;49.864;8.550;2024-01-11T06:33:25;-6.40;88.40
10089;DHT22;51898;49.864;8.550;2024-01-11T06:36:26;-6.40;88.80
10089;DHT22;51898;49.864;8.550;2024-01-11T06:39:29;-6.40;88.70
10089;DHT22;51898;49.864;8.550;2024-01-11T06:42:31;-6.40;88.70
10089;DHT22;51898;49.864;8.550;2024-01-11T06:45:33;-6.40;88.50
10089;DHT22;51898;49.864;8.550;2024-01-11T06:48:34;-6.40;88.50
10089;DHT22;51898;49.864;8.550;2024-01-11T06:51:36;-6.40;88.30
10089;DHT22;51898;49.864;8.550;2024-01-11T06:54:39;-6.40;88.30
10089;DHT22;51898;49.864;8.550;2024-01-11T06:57:41;-6.50;88.50
10089;DHT22;51898;49.864;8.550;2024-01-11T07:00:43;-6.50;88.40
10089;DHT22;51898;49.864;8.550;2024-01-11T07:03:45;-6.50;88.50
10089;DHT22;51898;49.864;8.550;2024-01-11T07:06:47;-6.50;88.40
10089;DHT22;51898;49.864;8.550;2024-01-11T07:09:49;-6.50;88.30
10089;DHT22;51898;49.864;8.550;2024-01-11T07:12:51;-6.50;88.30
10089;DHT22;51898;49.864;8.550;2024-01-11T07:15:53;-6.60;88.50
10089;DHT22;51898;49.864;8.550;2024-01-11T07:18:54;-6.50;88.30
10089;DHT22;51898;49.864;8.550;2024-01-11T07:21:56;-6.50;88.20
10089;DHT22;51898;49.864;8.550;2024-01-11T07:24:58;-6.50;88.10
10089;DHT22;51898;49.864;8.550;2024-01-11T07:28:00;-6.50;88.00
10089;DHT22;51898;49.864;8.550;2024-01-11T07:31:01;-6.50;88.00
10089;DHT22;51898;49.864;8.550;2024-01-11T07:34:03;-6.40;87.90
10089;DHT22;51898;49.864;8.550;2024-01-11T07:37:06;-6.50;87.90
10089;DHT22;51898;49.864;8.550;2024-01-11T07:40:08;-6.40;87.70
10089;DHT22;51898;49.864;8.550;2024-01-11T07:43:12;-6.40;87.50
10089;DHT22;51898;49.864;8.550;2024-01-11T07:46:15;-6.30;87.50
10089;DHT22;51898;49.864;8.550;2024-01-11T07:49:17;-6.30;87.30
10089;DHT22;51898;49.864;8.550;2024-01-11T07:52:19;-6.30;87.20
10089;DHT22;51898;49.864;8.550;2024-01-11T07:55:22;-6.30;87.20
10089;DHT22;51898;49.864;8.550;2024-01-11T07:58:25;-6.20;87.00
10089;DHT22;51898;49.864;8.550;2024-01-11T08:01:27;-6.30;87.20
10089;DHT22;51898;49.864;8.550;2024-01-11T08:04:29;-6.20;87.10
10089;DHT22;51898;49.864;8.550;2024-01-11T08:07:30;-6.20;86.90
10089;DHT22;51898;49.864;8.550;2024-01-11T08:10:32;-6.20;86.80
10089;DHT22;51898;49.864;8.550;2024-01-11T08:13:35;-6.10;86.90
10089;DHT22;51898;49.864;8.550;2024-01-11T08:16:37;-6.00;86.60
10089;DHT22;51898;49.864;8.550;2024-01-11T08:19:39;-5.90;86.20
10089;DHT22;51898;49.864;8.550;2024-01-11T08:22:42;-5.90;86.00
10089;DHT22;51898;49.864;8.550;2024-01-11T08:25:44;-5.80;85.70
10089;DHT22;51898;49.864;8.550;2024-01-11T08:28:46;-5.70;85.40
10089;DHT22;51898;49.864;8.550;2024-01-11T08:31:48;-5.60;85.30
10089;DHT22;51898;49.864;8.550;2024-01-11T08:34:50;-5.50;85.00
10089;DHT22;51898;49.864;8.550;2024-01-11T08:37:52;-5.40;84.60
10089;DHT22;51898;49.864;8.550;2024-01-11T08:40:53;-5.40;84.10
10089;DHT22;51898;49.864;8.550;2024-01-11T08:43:55;-5.30;83.70
10089;DHT22;51898;49.864;8.550;2024-01-11T08:46:57;-5.30;83.80
10089;DHT22;51898;49.864;8.550;2024-01-11T08:50:00;-5.20;83.20
10089;DHT22;51898;49.864;8.550;2024-01-11T08:53:02;-5.10;83.20
10089;DHT22;51898;49.864;8.550;2024-01-11T08:56:04;-5.00;82.50
10089;DHT22;51898;49.864;8.550;2024-01-11T08:59:06;-4.90;82.50
10089;DHT22;51898;49.864;8.550;2024-01-11T09:02:10;-4.80;82.10
10089;DHT22;51898;49.864;8.550;2024-01-11T09:05:19;-4.80;82.10
10089;DHT22;51898;49.864;8.550;2024-01-11T09:08:21;-4.70;81.60
10089;DHT22;51898;49.864;8.550;2024-01-11T09:11:22;-4.60;81.40
10089;DHT22;51898;49.864;8.550;2024-01-11T09:14:27;-4.50;81.00
10089;DHT22;51898;49.864;8.550;2024-01-11T09:17:39;-4.50;81.00
10089;DHT22;51898;49.864;8.550;2024-01-11T09:20:41;-4.50;80.70
10089;DHT22;51898;49.864;8.550;2024-01-11T09:23:43;-4.40;81.00
10089;DHT22;51898;49.864;8.550;2024-01-11T09:26:45;-4.30;80.90
10089;DHT22;51898;49.864;8.550;2024-01-11T09:29:47;-4.20;80.50
10089;DHT22;51898;49.864;8.550;2024-01-11T09:32:50;-4.20;79.80
10089;DHT22;51898;49.864;8.550;2024-01-11T09:35:53;-4.30;79.80
10089;DHT22;51898;49.864;8.550;2024-01-11T09:38:55;-4.20;79.70
10089;DHT22;51898;49.864;8.550;2024-01-11T09:42:01;-4.10;79.50
10089;DHT22;51898;49.864;8.550;2024-01-11T09:45:14;-4.10;80.00
10089;DHT22;51898;49.864;8.550;2024-01-11T09:48:18;-4.00;80.20
10089;DHT22;51898;49.864;8.550;2024-01-11T09:51:22;-3.90;79.50
10089;DHT22;51898;49.864;8.550;2024-01-11T09:54:25;-3.70;78.80
10089;DHT22;51898;49.864;8.550;2024-01-11T09:57:32;-3.60;78.10
10089;DHT22;51898;49.864;8.550;2024-01-11T10:00:37;-3.50;77.60
10089;DHT22;51898;49.864;8.550;2024-01-11T10:03:40;-3.40;77.50
10089;DHT22;51898;49.864;8.550;2024-01-11T10:06:43;-3.40;77.00
10089;DHT22;51898;49.864;8.550;2024-01-11T10:09:46;-3.20;76.70
10089;DHT22;51898;49.864;8.550;2024-01-11T10:12:48;-3.10;76.80
10089;DHT22;51898;49.864;8.550;2024-01-11T10:15:50;-3.10;76.30
10089;DHT22;51898;49.864;8.550;2024-01-11T10:18:54;-3.00;76.00
10089;DHT22;51898;49.864;8.550;2024-01-11T10:21:57;-3.00;75.60
10089;DHT22;51898;49.864;8.550;2024-01-11T10:25:16;-2.90;75.30
10089;DHT22;51898;49.864;8.550;2024-01-11T10:28:19;-2.90;75.40
10089;DHT22;51898;49.864;8.550;2024-01-11T10:31:22;-3.00;74.70
10089;DHT22;51898;49.864;8.550;2024-01-11T10:34:29;-2.90;74.80
10089;DHT22;51898;49.864;8.550;2024-01-11T10:37:32;-2.80;74.30
10089;DHT22;51898;49.864;8.550;2024-01-11T10:40:36;-2.70;74.30
10089;DHT22;51898;49.864;8.550;2024-01-11T10:43:38;-2.50;73.80
10089;DHT22;51898;49.864;8.550;2024-01-11T10:46:41;-2.40;73.40
10089;DHT22;51898;49.864;8.550;2024-01-11T10:49:44;-2.30;73.00
10089;DHT22;51898;49.864;8.550;2024-01-11T10:53:03;-2.20;72.60
10089;DHT22;51898;49.864;8.550;2024-01-11T10:56:06;-2.10;72.10
10089;DHT22;51898;49.864;8.550;2024-01-11T10:59:11;-2.10;71.70
10089;DHT22;51898;49.864;8.550;2024-01-11T11:02:14;-2.00;71.70
10089;DHT22;51898;49.864;8.550;2024-01-11T11:05:18;-1.90;71.20
10089;DHT22;51898;49.864;8.550;2024-01-11T11:08:23;-1.80;70.70
10089;DHT22;51898;49.864;8.550;2024-01-11T11:11:26;-1.60;70.40
10089;DHT22;51898;49.864;8.550;2024-01-11T11:14:28;-1.60;70.00
10089;DHT22;51898;49.864;8.550;2024-01-11T11:17:30;-1.60;70.10
10089;DHT22;51898;49.864;8.550;2024-01-11T11:20:32;-1.60;69.60
10089;DHT22;51898;49.864;8.550;2024-01-11T11:23:34;-1.50;69.40
10089;DHT22;51898;49.864;8.550;2024-01-11T11:26:36;-1.30;69.10
10089;DHT22;51898;49.864;8.550;2024-01-11T11:29:38;-1.20;69.30
10089;DHT22;51898;49.864;8.550;2024-01-11T11:32:43;-1.20;68.90
10089;DHT22;51898;49.864;8.550;2024-01-11T11:35:52;-1.10;68.70
10089;DHT22;51898;49.864;8.550;2024-01-11T11:38:59;-1.00;68.40
10089;DHT22;51898;49.864;8.550;2024-01-11T11:42:02;-0.90;68.30
10089;DHT22;51898;49.864;8.550;2024-01-11T11:45:08;-0.80;67.20
10089;DHT22;51898;49.864;8.550;2024-01-11T11:48:48;-0.70;67.60
10089;DHT22;51898;49.864;8.550;2024-01-11T11:51:51;-0.70;67.10
10089;DHT22;51898;49.864;8.550;2024-01-11T11:54:58;-0.70;66.70
10089;DHT22;51898;49.864;8.550;2024-01-11T11:58:00;-0.60;66.90
10089;DHT22;51898;49.864;8.550;2024-01-11T12:01:03;-0.50;67.10
10089;DHT22;51898;49.864;8.550;2024-01-11T12:04:08;-0.50;66.20
10089;DHT22;51898;49.864;8.550;2024-01-11T12:07:10;-0.50;66.10
10089;DHT22;51898;49.864;8.550;2024-01-11T12:10:12;-0.50;65.70
10089;DHT22;51898;49.864;8.550;2024-01-11T12:13:17;-0.40;65.90
10089;DHT22;51898;49.864;8.550;2024-01-11T12:16:19;-0.40;65.80
10089;DHT22;51898;49.864;8.550;2024-01-11T12:19:23;-0.30;65.30
10089;DHT22;51898;49.864;8.550;2024-01-11T12:22:25;-0.20;65.10
10089;DHT22;51898;49.864;8.550;2024-01-11T12:25:27;-0.20;65.30
10089;DHT22;51898;49.864;8.550;2024-01-11T12:28:29;-0.10;64.10
10089;DHT22;51898;49.864;8.550;2024-01-11T12:31:31;0.00;64.20
10089;DHT22;51898;49.864;8.550;2024-01-11T12:34:33;0.00;64.10
10089;DHT22;51898;49.864;8.550;2024-01-11T12:37:35;0.00;63.60
10089;DHT22;51898;49.864;8.550;2024-01-11T12:40:38;0.10;63.50
10089;DHT22;51898;49.864;8.550;2024-01-11T12:43:40;0.30;62.20
10089;DHT22;51898;49.864;8.550;2024-01-11T12:46:41;0.30;61.70
10089;DHT22;51898;49.864;8.550;2024-01-11T12:49:46;0.40;61.80
10089;DHT22;51898;49.864;8.550;2024-01-11T12:53:07;0.50;61.90
10089;DHT22;51898;49.864;8.550;2024-01-11T12:56:08;0.50;61.70
10089;DHT22;51898;49.864;8.550;2024-01-11T12:59:12;0.50;61.60
10089;DHT22;51898;49.864;8.550;2024-01-11T13:02:16;0.60;61.40
10089;DHT22;51898;49.864;8.550;2024-01-11T13:05:21;0.60;61.60
10089;DHT22;51898;49.864;8.550;2024-01-11T13:08:22;0.70;61.40
10089;DHT22;51898;49.864;8.550;2024-01-11T13:11:25;0.70;60.80
10089;DHT22;51898;49.864;8.550;2024-01-11T13:14:27;0.80;61.00
10089;DHT22;51898;49.864;8.550;2024-01-11T13:17:30;0.80;61.10
10089;DHT22;51898;49.864;8.550;2024-01-11T13:20:32;0.80;60.80
10089;DHT22;51898;49.864;8.550;2024-01-11T13:23:34;0.90;61.10
10089;DHT22;51898;49.864;8.550;2024-01-11T13:26:36;0.90;61.20
10089;DHT22;51898;49.864;8.550;2024-01-11T13:29:38;1.00;60.80
10089;DHT22;51898;49.864;8.550;2024-01-11T13:32:40;1.00;59.80
10089;DHT22;51898;49.864;8.550;2024-01-11T13:35:42;1.10;59.40
10089;DHT22;51898;49.864;8.550;2024-01-11T13:38:45;1.00;59.30
10089;DHT22;51898;49.864;8.550;2024-01-11T13:41:47;1.10;59.50
10089;DHT22;51898;49.864;8.550;2024-01-11T13:44:49;1.10;59.30
10089;DHT22;51898;49.864;8.550;2024-01-11T13:47:51;1.10;58.90
10089;DHT22;51898;49.864;8.550;2024-01-11T13:50:53;1.20;59.30
10089;DHT22;51898;49.864;8.550;2024-01-11T13:53:58;1.20;59.00
10089;DHT22;51898;49.864;8.550;2024-01-11T13:57:02;1.10;59.10
10089;DHT22;51898;49.864;8.550;2024-01-11T14:00:05;1.10;59.50
10089;DHT22;51898;49.864;8.550;2024-01-11T14:03:07;1.20;59.10
10089;DHT22;51898;49.864;8.550;2024-01-11T14:06:10;1.30;58.70
10089;DHT22;51898;49.864;8.550;2024-01-11T14:09:12;1.30;58.20
10089;DHT22;51898;49.864;8.550;2024-01-11T14:12:14;1.30;57.60
10089;DHT22;51898;49.864;8.550;2024-01-11T14:15:17;1.40;57.90
10089;DHT22;51898;49.864;8.550;2024-01-11T14:18:21;1.40;57.80
10089;DHT22;51898;49.864;8.550;2024-01-11T14:21:24;1.40;58.20
10089;DHT22;51898;49.864;8.550;2024-01-11T14:24:26;1.40;57.90
10089;DHT22;51898;49.864;8.550;2024-01-11T14:27:37;1.30;57.70
10089;DHT22;51898;49.864;8.550;2024-01-11T14:30:38;1.40;57.90
10089;DHT22;51898;49.864;8.550;2024-01-11T14:33:40;1.40;57.50
10089;DHT22;51898;49.864;8.550;2024-01-11T14:36:42;1.30;58.00
10089;DHT22;51898;49.864;8.550;2024-01-11T14:39:44;1.30;58.10
10089;DHT22;51898;49.864;8.550;2024-01-11T14:42:45;1.40;58.40
10089;DHT22;51898;49.864;8.550;2024-01-11T14:45:47;1.30;57.90
10089;DHT22;51898;49.864;8.550;2024-01-11T14:48:51;1.30;58.00
10089;DHT22;51898;49.864;8.550;2024-01-11T14:51:52;1.30;58.10
10089;DHT22;51898;49.864;8.550;2024-01-11T14:54:54;1.30;58.20
10089;DHT22;51898;49.864;8.550;2024-01-11T14:57:56;1.30;58.00
10089;DHT22;51898;49.864;8.550;2024-01-11T15:01:01;1.30;58.20
10089;DHT22;51898;49.864;8.550;2024-01-11T15:04:02;1.30;58.10
10089;DHT22;51898;49.864;8.550;2024-01-11T15:07:09;1.30;58.40
10089;DHT22;51898;49.864;8.550;2024-01-11T15:10:11;1.20;58.80
10089;DHT22;51898;49.864;8.550;2024-01-11T15:13:13;1.20;58.80
10089;DHT22;51898;49.864;8.550;2024-01-11T15:16:15;1.20;59.20
10089;DHT22;51898;49.864;8.550;2024-01-11T15:19:16;1.10;59.40
10089;DHT22;51898;49.864;8.550;2024-01-11T15:22:18;1.10;59.60
10089;DHT22;51898;49.864;8.550;2024-01-11T15:25:20;1.00;59.80
10089;DHT22;51898;49.864;8.550;2024-01-11T15:28:22;1.00;59.90
10089;DHT22;51898;49.864;8.550;2024-01-11T15:31:24;0.90;60.10
10089;DHT22;51898;49.864;8.550;2024-01-11T15:34:27;0.90;60.40
10089;DHT22;51898;49.864;8.550;2024-01-11T15:37:29;0.80;60.50
10089;DHT22;51898;49.864;8.550;2024-01-11T15:40:33;0.80;60.90
10089;DHT22;51898;49.864;8.550;2024-01-11T15:43:35;0.60;61.70
10089;DHT22;51898;49.864;8.550;2024-01-11T15:46:38;0.50;62.20
10089;DHT22;51898;49.864;8.550;2024-01-11T15:49:40;0.40;62.60
10089;DHT22;51898;49.864;8.550;2024-01-11T15:52:42;0.30;63.00
10089;DHT22;51898;49.864;8.550;2024-01-11T15:55:43;0.20;63.40
10089;DHT22;51898;49.864;8.550;2024-01-11T15:58:45;0.10;63.70
10089;DHT22;51898;49.864;8.550;2024-01-11T16:01:47;0.00;64.00
10089;DHT22;51898;49.864;8.550;2024-01-11T16:05:04;0.00;64.20
10089;DHT22;51898;49.864;8.550;2024-01-11T16:08:06;-0.10;64.70
10089;DHT22;51898;49.864;8.550;2024-01-11T16:11:07;-0.20;65.20
10089;DHT22;51898;49.864;8.550;2024-01-11T16:14:09;-0.30;65.90
10089;DHT22;51898;49.864;8.550;2024-01-11T16:17:11;-0.40;66.40
10089;DHT22;51898;49.864;8.550;2024-01-11T16:20:13;-0.40;66.80
10089;DHT22;51898;49.864;8.550;2024-01-11T16:23:15;-0.50;66.80
10089;DHT22;51898;49.864;8.550;2024-01-11T16:26:16;-0.50;67.20
10089;DHT22;51898;49.864;8.550;2024-01-11T16:29:18;-0.60;67.30
10089;DHT22;51898;49.864;8.550;2024-01-11T16:32:20;-0.70;67.50
10089;DHT22;51898;49.864;8.550;2024-01-11T16:35:22;-0.80;68.10
10089;DHT22;51898;49.864;8.550;2024-01-11T16:38:25;-0.80;68.40
10089;DHT22;51898;49.864;8.550;2024-01-11T16:41:27;-0.90;68.70
10089;DHT22;51898;49.864;8.550;2024-01-11T16:44:28;-0.90;69.00
10089;DHT22;51898;49.864;8.550;2024-01-11T16:47:30;-1.00;69.10
10089;DHT22;51898;49.864;8.550;2024-01-11T16:50:37;-1.00;69.10
10089;DHT22;51898;49.864;8.550;2024-01-11T16:53:42;-1.10;68.90
10089;DHT22;51898;49.864;8.550;2024-01-11T16:56:46;-1.20;69.00
10089;DHT22;51898;49.864;8.550;2024-01-11T16:59:47;-1.30;70.00
10089;DHT22;51898;49.864;8.550;2024-01-11T17:02:49;-1.30;70.20
10089;DHT22;51898;49.864;8.550;2024-01-11T17:05:51;-1.40;70.40
10089;DHT22;51898;49.864;8.550;2024-01-11T17:08:53;-1.60;70.80
10089;DHT22;51898;49.864;8.550;2024-01-11T17:11:55;-1.80;71.70
10089;DHT22;51898;49.864;8.550;2024-01-11T17:14:56;-1.80;72.40
10089;DHT22;51898;49.864;8.550;2024-01-11T17:17:58;-1.90;72.80
10089;DHT22;51898;49.864;8.550;2024-01-11T17:21:02;-1.90;73.20
10089;DHT22;51898;49.864;8.550;2024-01-11T17:24:05;-1.90;73.40
10089;DHT22;51898;49.864;8.550;2024-01-11T17:27:06;-1.90;73.80
10089;DHT22;51898;49.864;8.550;2024-01-11T17:30:10;-1.90;74.20
10089;DHT22;51898;49.864;8.550;2024-01-11T17:33:12;-1.90;74.30
10089;DHT22;51898;49.864;8.550;2024-01-11T17:36:14;-2.00;74.20
10089;DHT22;51898;49.864;8.550;2024-01-11T17:39:16;-2.00;74.00
10089;DHT22;51898;49.864;8.550;2024-01-11T17:42:20;-2.10;73.80
10089;DHT22;51898;49.864;8.550;2024-01-11T17:45:21;-2.20;74.70
10089;DHT22;51898;49.864;8.550;2024-01-11T17:48:23;-2.20;74.60
10089;DHT22;51898;49.864;8.550;2024-01-11T17:51:25;-2.20;74.60
10089;DHT22;51898;49.864;8.550;2024-01-11T17:54:27;-2.10;74.70
10089;DHT22;51898;49.864;8.550;2024-01-11T17:57:29;-2.10;74.70
10089;DHT22;51898;49.864;8.550;2024-01-11T18:00:31;-2.10;74.80
10089;DHT22;51898;49.864;8.550;2024-01-11T18:03:33;-2.10;74.80
10089;DHT22;51898;49.864;8.550;2024-01-11T18:06:35;-2.10;74.70
10089;DHT22;51898;49.864;8.550;2024-01-11T18:09:37;-2.20;74.70
10089;DHT22;51898;49.864;8.550;2024-01-11T18:12:39;-2.20;75.20
10089;DHT22;51898;49.864;8.550;2024-01-11T18:15:41;-2.20;75.30
10089;DHT22;51898;49.864;8.550;2024-01-11T18:18:42;-2.20;75.50
10089;DHT22;51898;49.864;8.550;2024-01-11T18:21:46;-2.20;75.50
10089;DHT22;51898;49.864;8.550;2024-01-11T18:24:48;-2.30;75.70
10089;DHT22;51898;49.864;8.550;2024-01-11T18:27:50;-2.30;76.10
10089;DHT22;51898;49.864;8.550;2024-01-11T18:30:51;-2.40;76.60
10089;DHT22;51898;49.864;8.550;2024-01-11T18:33:53;-2.40;77.10
10089;DHT22;51898;49.864;8.550;2024-01-11T18:36:56;-2.40;76.90
10089;DHT22;51898;49.864;8.550;2024-01-11T18:39:58;-2.30;76.50
10089;DHT22;51898;49.864;8.550;2024-01-11T18:43:00;-2.40;76.30
10089;DHT22;51898;49.864;8.550;2024-01-11T18:46:02;-2.50;76.40
10089;DHT22;51898;49.864;8.550;2024-01-11T18:49:05;-2.60;77.20
10089;DHT22;51898;49.864;8.550;2024-01-11T18:52:08;-2.60;77.60
10089;DHT22;51898;49.864;8.550;2024-01-11T18:55:10;-2.60;77.60
10089;DHT22;51898;49.864;8.550;2024-01-11T18:58:18;-2.60;77.50
10089;DHT22;51898;49.864;8.550;2024-01-11T19:01:19;-2.70;77.50
10089;DHT22;51898;49.864;8.550;2024-01-11T19:04:26;-2.70;77.70
10089;DHT22;51898;49.864;8.550;2024-01-11T19:07:28;-2.70;78.00
10089;DHT22;51898;49.864;8.550;2024-01-11T19:10:30;-2.70;78.00
10089;DHT22;51898;49.864;8.550;2024-01-11T19:13:31;-2.80;77.90
10089;DHT22;51898;49.864;8.550;2024-01-11T19:16:35;-2.80;78.20
10089;DHT22;51898;49.864;8.550;2024-01-11T19:19:37;-2.90;78.10